Flight Track Log - Related Links

Times and Time Zones

All times are in EDT time to prevent confusion due to time zone crossing. See the SKW2696 flight status page for this flight to view local times or setup timezone preferences in your user account.

Time Position Orientation Groundspeed Altitude Reporting Facility
EDT Latitude Longitude Course Direction KTS MPH feet Rate Location/Type
Wed 06:23:23 PM 33.9333 -118.4333 265° West 158 182 1,600  Level Southern California TRACON
Wed 06:23:54 PM 33.9306 -118.4714 265° West 196 226 2,600 2,323 Climbing Los Angeles Center
Wed 06:24:56 PM 33.9236 -118.5564 264° West 255 293 5,200 2,613 Climbing Los Angeles Center
Wed 06:25:58 PM 33.9353 -118.6469 279° West 287 330 8,000 1,839 Climbing Los Angeles Center
Wed 06:27:00 PM 34.0033 -118.7017 326° Northwest 272 313 9,000 532 Climbing Los Angeles Center
Wed 06:28:02 PM 34.0675 -118.6914 North 256 295 9,100 290 Climbing Los Angeles Center
Wed 06:29:04 PM 34.1306 -118.6575 24° Northeast 248 285 9,600 1,403 Climbing Los Angeles Center
Wed 06:30:06 PM 34.2042 -118.6669 354° North 260 299 12,000 2,274 Climbing Los Angeles Center
Wed 06:31:08 PM 34.2814 -118.6808 352° North 276 318 14,300 1,548 Climbing Los Angeles Center
Wed 06:32:10 PM 34.3644 -118.6961 351° North 293 337 15,200 1,306 Climbing Los Angeles Center
Wed 06:33:12 PM 34.4517 -118.7106 352° North 315 362 17,000 1,790 Climbing Los Angeles Center
Wed 06:34:14 PM 34.5572 -118.7358 349° North 323 372 18,900 1,548 Climbing Los Angeles Center
Wed 06:35:16 PM 34.6411 -118.7822 336° Northwest 333 383 20,200 1,258 Climbing Los Angeles Center
Wed 06:36:18 PM 34.7275 -118.8244 338° Northwest 334 384 21,500 1,210 Climbing Los Angeles Center
Wed 06:37:20 PM 34.8169 -118.8683 338° Northwest 344 396 22,700 1,103 Climbing Los Angeles Center
Wed 06:39:12 PM 34.9944 -118.9008 351° North 361 415 24,700 1,075 Climbing Oakland Center
Wed 06:40:13 PM 35.1142 -118.9194 353° North 362 417 25,800 1,033 Climbing Oakland Center
Wed 06:41:14 PM 35.2169 -118.9356 353° North 368 423 26,800 885 Climbing Oakland Center
Wed 06:42:15 PM 35.3208 -118.9519 353° North 374 430 27,600 711 Climbing Oakland Center
Wed 06:42:30 PM 35.3406 -118.9556 352° North 373 429 27,700 545 Climbing Los Angeles Center
Wed 06:43:32 PM 35.4478 -118.9736 352° North 384 442 28,300 629 Climbing Los Angeles Center
Wed 06:44:34 PM 35.5567 -118.9906 353° North 392 451 29,000 617 Climbing Los Angeles Center
Wed 06:45:19 PM 35.6428 -119.0033 353° North 394 453 29,400 566 Climbing Oakland Center
Wed 06:46:20 PM 35.7522 -119.0214 352° North 397 457 30,000 541 Climbing Oakland Center
Wed 06:47:21 PM 35.8644 -119.0394 353° North 405 466 30,500 585 Climbing Oakland Center
Wed 06:48:23 PM 35.9750 -119.0578 352° North 404 465 31,200 732 Climbing Oakland Center
Wed 06:49:24 PM 36.1086 -119.0794 353° North 402 463 32,000 393 Climbing Oakland Center
Wed 06:50:25 PM 36.2214 -119.0975 353° North 408 470 32,000  Level Oakland Center
Wed 06:51:26 PM 36.3356 -119.1158 353° North 416 479 32,000  Level Oakland Center
Wed 06:52:28 PM 36.4525 -119.1347 353° North 424 488 32,000  Level Oakland Center
Wed 06:53:29 PM 36.5686 -119.1528 353° North 420 483 32,000  Level Oakland Center
Wed 06:54:30 PM 36.6850 -119.1719 352° North 420 483 32,000 -148 Level Oakland Center
Wed 06:55:31 PM 36.8008 -119.1906 353° North 421 484 31,700 -634 Descending Oakland Center
Wed 06:56:33 PM 36.9172 -119.2106 352° North 425 489 30,700 -829 Descending Oakland Center
Wed 06:57:34 PM 37.0333 -119.2294 353° North 421 484 30,000 -344 Descending Oakland Center
Wed 06:58:35 PM 37.1672 -119.2506 353° North 404 465 30,000  Level Oakland Center
Wed 06:59:36 PM 37.2753 -119.2692 352° North 394 453 30,000  Level Oakland Center
Wed 07:00:38 PM 37.3817 -119.2917 350° North 388 447 30,000  Level Oakland Center
Wed 07:01:39 PM 37.4850 -119.3261 345° North 384 442 30,000 -246 Level Oakland Center
Wed 07:02:40 PM 37.5867 -119.3586 346° North 379 436 29,500 -492 Descending Oakland Center
Wed 07:03:41 PM 37.6878 -119.3917 345° North 384 442 29,000 -488 Descending Oakland Center
Wed 07:04:43 PM 37.7950 -119.4269 345° North 394 453 28,500 -537 Descending Oakland Center
Wed 07:05:44 PM 37.9244 -119.4681 346° North 399 459 27,900 -541 Descending Oakland Center
Wed 07:06:45 PM 38.0353 -119.5036 346° North 407 468 27,400 -639 Descending Oakland Center
Wed 07:07:46 PM 38.1436 -119.5408 345° North 406 467 26,600 -1,328 Descending Oakland Center
Wed 07:08:47 PM 38.2547 -119.5758 346° North 419 482 24,700 -1,902 Descending Oakland Center
Wed 07:09:49 PM 38.3733 -119.6025 350° North 432 497 22,700 -1,902 Descending Oakland Center
Wed 07:10:50 PM 38.4747 -119.6244 350° North 398 458 20,800 -1,967 Descending Oakland Center
Wed 07:11:51 PM 38.5775 -119.6478 350° North 377 434 18,700 -2,213 Descending Oakland Center
Wed 07:12:52 PM 38.6831 -119.6722 350° North 381 438 16,300 -2,293 Descending Oakland Center
Wed 07:13:54 PM 38.8089 -119.7011 350° North 381 438 14,000 -1,122 Descending Oakland Center
Wed 07:14:55 PM 38.9097 -119.7247 350° North 370 426 14,000 -49 Level Oakland Center
Wed 07:15:56 PM 39.0111 -119.7464 351° North 367 422 13,900 -1,073 Descending Oakland Center
Wed 07:16:58 PM 39.1117 -119.7689 350° North 366 421 11,800 -1,854 Descending Oakland Center
Wed 07:17:59 PM 39.2044 -119.7700 359° North 350 403 10,100 -1,426 Descending Oakland Center
Wed 07:19:00 PM 39.2850 -119.7650 North 313 360 8,900 -780 Descending Oakland Center
Wed 07:20:02 PM 39.3556 -119.7661 359° North 303 349 8,500 -1,478 Descending Oakland Center
Wed 07:21:14 PM 39.4333 -119.7667 360° North 193 222 5,600 -1,682 Descending Northern Cal TRACON
Wed 07:22:14 PM 39.4667 -119.7667 360° North 148 170 4,800 -800 Descending Northern Cal TRACON
Wed 07:24:00 PM 39.4833 -119.7667 North  Level FlightAware Approximate
Wed 07:31:00 PM 39.4991 -119.7681 North  Level Estimated

Login

Don't have an account? Register now (free) for customized features, flight alerts, and more!